LFCR/RDZ METAR and TAF weather

Enter ICAO airport designator
Station Type Date Time Source
LFCR METAR 2021/07/29 09:30 UTC NOAA

LFCR 290930Z AUTO 35003KT 280V050 CAVOK 21/15 Q1018 NOSIG


Station Type Date Time Source
LFCR Decoded METAR 2021/07/29 09:30 UTC NOAA

Rodez, France (LFCR) 44-24N 002-29E 580M
Jul 29, 2021 - 05:30 AM EDT / 2021.07.29 0930 UTC
Wind: from the N (350 degrees) at 3 MPH (3 KT) (direction variable):0
Visibility: greater than 7 mile(s):0
Temperature: 69 F (21 C)
Dew Point: 59 F (15 C)
Relative Humidity: 68%
Pressure (altimeter): 30.06 in. Hg (1018 hPa)
ob: LFCR 290930Z AUTO 35003KT 280V050 CAVOK 21/15 Q1018 NOSIG
cycle: 9

Station Type Date Time Source
LFCR TAF 2021/07/29 06:21 UTC NOAA

TAF LFCR 290500Z 2906/3006 27003KT 9999 SCT012
TEMPO 2906/2907 0600 FG VV///
BECMG 2907/2908 CAVOK

Example: see airport list